Messwerte Wichita

Temperatur

Temperatur
°C
1574312400 23.00 23.00 17
1574316000 0.00 0.00 17
1574319600 1.00 1.00
1574323200 2.00 2.00 17
1574326800 3.00 3.00 9
1574330400 4.00 4.00 8
1574334000 5.00 5.00 7
1574337600 6.00 6.00
1574341200 7.00 7.00 6
1574344800 8.00 8.00 6
1574348400 9.00 9.00 6
1574352000 10.00 10.00 7
1574355600 11.00 11.00 7
1574359200 12.00 12.00 7
1574362800 13.00 13.00 7
1574366400 14.00 14.00 7
1574370000 15.00 15.00 6
1574373600 16.00 16.00 6
1574377200 17.00 17.00 5
1574380800 18.00 18.00 4
1574384400 19.00 19.00 4
1574388000 20.00 20.00 3
1574391600 21.00 21.00 3
1574395200 22.00 22.00

Wir danken unserem Partner:

Aktuellste Messwerte

Wettercharakter
Wetter: bedeckt, wenig Regen
Temperatur
2 °C
Feuchtigkeit
75 %
Wind
25 km/hWindrichtung: Nordost
Böen
45 km/h
Luftdruck
1022 hPa
Messzeit: 21. November 2019, 23.00Datenquelle: METAR

Weitere Messstationen in der Nähe

Messstation Temperatur Entfernung
McConnell Air Force Base 2 °C 14 km
Wichita 2 °C 22 km
Newton 1 °C 49 km
Hutchinson 1 °C 60 km
Winfield / Arkansas City 3 °C 63 km
Ponca City 4 °C 106 km
Medicine Lodge 2.0 °C 109 km

Wind

Windrichtung Böen Mittelwind
° km/h km/h
1574312400 23.00 22.00 - 23.00 200° 50 30
1574316000 0.00 23.00 - 0.00 200° 45 30
1574319600 1.00 0.00 - 1.00
1574323200 2.00 1.00 - 2.00 220° 45 25
1574326800 3.00 2.00 - 3.00 340° 50 30
1574330400 4.00 3.00 - 4.00 340° 55 30
1574334000 5.00 4.00 - 5.00 340° 45 30
1574337600 6.00 5.00 - 6.00
1574341200 7.00 6.00 - 7.00 340° 25
1574344800 8.00 7.00 - 8.00 350° 50 30
1574348400 9.00 8.00 - 9.00 350° 45 30
1574352000 10.00 9.00 - 10.00 10° 25
1574355600 11.00 10.00 - 11.00 360° 40 30
1574359200 12.00 11.00 - 12.00 360° 45 30
1574362800 13.00 12.00 - 13.00 350° 45 25
1574366400 14.00 13.00 - 14.00 360° 45 30
1574370000 15.00 14.00 - 15.00 10° 45 30
1574373600 16.00 15.00 - 16.00 10° 40 30
1574377200 17.00 16.00 - 17.00 20° 45 30
1574380800 18.00 17.00 - 18.00 30° 30
1574384400 19.00 18.00 - 19.00 360° 45 30
1574388000 20.00 19.00 - 20.00 20° 40 20
1574391600 21.00 20.00 - 21.00 20° 20
1574395200 22.00 21.00 - 22.00

Ihre Wetterstation

Fehlt Ihre Wetterstation auf unserem Portal?

Schreiben Sie an network@meteonews.ch

Klima

Wann ist es am wärmsten? Wann regnet es am wenigsten? Unsere Klimadaten geben Auskunft.